Time;durP1;ratioP1;P1;durP2;ratioP2;P2;SDS_P1;SDS_P2;PMS_P1;PMS_P2;Temp;Humidity;BMP_temperature;BMP_pressure;BME280_temperature;BME280_humidity;BME280_pressure;Samples;Min_cycle;Max_cycle;Signal;HPM_P1;HPM_P2
2023/05/06 00:00:41;;;;;;;5.77;5.27;;;;;;;10.91;100.00;101610.13;6093696;23;20174;-67
2023/05/06 00:03:08;;;;;;;6.03;5.23;;;;;;;11.08;100.00;101590.16;6094062;23;20158;-67
2023/05/06 00:05:34;;;;;;;8.30;5.03;;;;;;;11.39;100.00;101618.69;6093977;23;20179;-67
2023/05/06 00:08:00;;;;;;;5.17;4.70;;;;;;;11.28;100.00;101637.94;6094402;23;20405;-67
2023/05/06 00:10:25;;;;;;;5.97;4.97;;;;;;;11.50;100.00;101641.56;6094555;23;20157;-67
2023/05/06 00:12:51;;;;;;;5.73;5.20;;;;;;;11.51;100.00;101637.84;6094800;23;20467;-67
2023/05/06 00:15:16;;;;;;;7.33;5.30;;;;;;;11.36;100.00;101588.69;6094065;23;20181;-67
2023/05/06 00:17:42;;;;;;;6.70;4.87;;;;;;;11.46;100.00;101624.19;6094451;23;20154;-67
2023/05/06 00:20:11;;;;;;;7.33;5.07;;;;;;;11.32;100.00;101628.53;6093906;23;20190;-67
2023/05/06 00:22:36;;;;;;;5.70;5.10;;;;;;;11.32;100.00;101623.97;6092458;23;20170;-67
2023/05/06 00:25:02;;;;;;;6.93;5.20;;;;;;;11.38;100.00;101624.25;6093739;23;20378;-67
2023/05/06 00:27:28;;;;;;;9.40;5.13;;;;;;;11.52;100.00;101639.56;6093678;23;20230;-67
2023/05/06 00:29:53;;;;;;;8.17;5.17;;;;;;;11.41;100.00;101623.88;6093600;23;20407;-67
2023/05/06 00:32:19;;;;;;;10.77;5.60;;;;;;;11.25;100.00;101622.19;6094053;23;20157;-67
2023/05/06 00:34:44;;;;;;;6.73;5.87;;;;;;;11.47;100.00;101636.56;6094245;23;20181;-67
2023/05/06 00:37:10;;;;;;;7.67;6.40;;;;;;;11.35;100.00;101624.63;6093304;23;20174;-67
2023/05/06 00:39:35;;;;;;;7.20;5.80;;;;;;;11.40;100.00;101635.63;6094483;23;20170;-67
2023/05/06 00:42:02;;;;;;;7.53;6.57;;;;;;;11.22;100.00;101646.75;6093844;23;20174;-67
2023/05/06 00:44:28;;;;;;;7.30;6.33;;;;;;;11.24;100.00;101658.13;6093991;23;20163;-67
2023/05/06 00:46:55;;;;;;;7.20;6.50;;;;;;;11.47;100.00;101655.38;6091658;23;20394;-67
2023/05/06 00:49:21;;;;;;;9.03;6.70;;;;;;;11.14;100.00;101636.06;6091973;23;20796;-67
2023/05/06 00:51:47;;;;;;;7.87;6.80;;;;;;;11.21;100.00;101661.19;6093769;23;20386;-67
2023/05/06 00:54:13;;;;;;;9.03;6.77;;;;;;;11.15;100.00;101680.72;6092087;23;20161;-67
2023/05/06 00:56:40;;;;;;;8.13;7.17;;;;;;;11.10;100.00;101710.78;6092820;23;20403;-67
2023/05/06 00:59:06;;;;;;;10.77;7.13;;;;;;;11.17;100.00;101714.44;6093827;23;20239;-67
2023/05/06 01:01:32;;;;;;;12.50;7.00;;;;;;;11.18;100.00;101712.56;6093921;23;20450;-67
2023/05/06 01:03:57;;;;;;;7.80;6.77;;;;;;;11.28;100.00;101722.06;6094410;23;20552;-67
2023/05/06 01:06:23;;;;;;;8.20;6.70;;;;;;;11.45;100.00;101719.19;6092644;23;20175;-67
2023/05/06 01:09:18;;;;;;;8.30;6.43;;;;;;;11.42;100.00;101719.56;6093983;23;20181;-67
2023/05/06 01:12:08;;;;;;;7.63;6.60;;;;;;;11.34;100.00;101708.91;6092995;23;20666;-67
2023/05/06 01:14:45;;;;;;;8.90;6.70;;;;;;;10.90;100.00;101674.72;6093621;23;20370;-67
2023/05/06 01:17:12;;;;;;;7.33;6.63;;;;;;;11.00;100.00;101705.69;6093771;23;20457;-68
2023/05/06 01:19:48;;;;;;;9.10;6.90;;;;;;;11.01;100.00;101712.69;6093433;23;20405;-67
2023/05/06 01:22:15;;;;;;;9.10;7.77;;;;;;;10.78;100.00;101719.94;6093283;23;20373;-67
2023/05/06 01:24:42;;;;;;;8.50;5.50;;;;;;;11.02;100.00;101751.13;6093514;23;20383;-67
2023/05/06 01:27:09;;;;;;;8.63;6.63;;;;;;;11.27;100.00;101749.09;6093311;23;20414;-67
2023/05/06 01:29:37;;;;;;;9.60;6.97;;;;;;;11.14;100.00;101746.16;6093016;23;20486;-67
2023/05/06 01:32:18;;;;;;;7.90;7.13;;;;;;;11.02;100.00;101751.97;6093303;23;20700;-67
2023/05/06 01:35:05;;;;;;;9.13;6.97;;;;;;;11.30;100.00;101751.41;6093278;23;20386;-67
2023/05/06 01:37:55;;;;;;;8.43;6.97;;;;;;;11.40;100.00;101749.31;6091377;23;20425;-67
2023/05/06 01:40:25;;;;;;;9.37;7.73;;;;;;;11.09;100.00;101719.88;6091783;23;20419;-67
2023/05/06 01:42:51;;;;;;;9.00;8.13;;;;;;;11.24;100.00;101720.72;6093438;23;20374;-67
2023/05/06 01:45:19;;;;;;;9.37;8.37;;;;;;;11.38;100.00;101745.97;6092758;23;20726;-67
2023/05/06 01:47:45;;;;;;;10.20;8.23;;;;;;;11.22;100.00;101722.75;6093528;23;20409;-67
2023/05/06 01:50:11;;;;;;;13.20;7.97;;;;;;;11.51;100.00;101748.88;6093302;23;20465;-67
2023/05/06 01:52:37;;;;;;;10.27;8.03;;;;;;;11.47;100.00;101754.78;6093239;23;20379;-67
2023/05/06 01:55:03;;;;;;;10.00;7.90;;;;;;;11.43;100.00;101748.94;6092757;23;20234;-67
2023/05/06 01:57:28;;;;;;;10.50;8.03;;;;;;;11.26;100.00;101747.41;6093466;23;20515;-67
2023/05/06 01:59:54;;;;;;;9.20;7.67;;;;;;;11.01;100.00;101679.66;6093186;23;20430;-67
2023/05/06 02:02:19;;;;;;;10.00;7.20;;;;;;;11.19;100.00;101706.19;6093168;23;20154;-67
2023/05/06 02:04:44;;;;;;;8.20;7.40;;;;;;;11.18;100.00;101742.13;6093165;23;20496;-67
2023/05/06 02:07:10;;;;;;;7.53;6.73;;;;;;;10.99;100.00;101744.28;6092911;23;20181;-67
2023/05/06 02:09:35;;;;;;;9.60;6.93;;;;;;;11.12;100.00;101750.91;6093093;23;20157;-67
2023/05/06 02:12:01;;;;;;;8.13;6.63;;;;;;;11.18;100.00;101736.75;6093279;23;20166;-67
2023/05/06 02:14:26;;;;;;;7.03;6.37;;;;;;;11.24;100.00;101742.22;6093207;23;20158;-67
2023/05/06 02:16:52;;;;;;;8.20;6.40;;;;;;;11.23;100.00;101745.94;6092718;23;20174;-67
2023/05/06 02:19:17;;;;;;;6.47;5.87;;;;;;;11.05;100.00;101742.69;6091284;23;20515;-67
2023/05/06 02:21:43;;;;;;;7.27;6.57;;;;;;;11.18;100.00;101742.94;6092828;23;20630;-67
2023/05/06 02:24:08;;;;;;;7.37;6.53;;;;;;;11.15;100.00;101731.75;6092805;23;20382;-67
2023/05/06 02:26:34;;;;;;;7.27;6.53;;;;;;;11.09;100.00;101722.56;6092512;23;20677;-67
2023/05/06 02:28:59;;;;;;;7.03;6.13;;;;;;;11.05;100.00;101732.81;6092916;23;20161;-67
2023/05/06 02:31:25;;;;;;;6.90;6.10;;;;;;;10.60;100.00;101672.75;6091402;23;20594;-67
2023/05/06 02:33:50;;;;;;;7.60;6.33;;;;;;;10.74;100.00;101732.88;6093240;23;20585;-67
2023/05/06 02:36:16;;;;;;;6.30;5.70;;;;;;;10.90;100.00;101744.50;6092702;23;20174;-67
2023/05/06 02:38:41;;;;;;;8.67;6.57;;;;;;;10.78;100.00;101731.50;6092629;23;20516;-67
2023/05/06 02:41:07;;;;;;;9.50;6.23;;;;;;;10.69;100.00;101699.53;6093181;23;20174;-67
2023/05/06 02:43:32;;;;;;;7.90;6.40;;;;;;;10.93;100.00;101704.72;6093132;23;20159;-68
2023/05/06 02:45:58;;;;;;;12.40;7.20;;;;;;;10.79;100.00;101698.31;6091147;23;20242;-67
2023/05/06 02:48:23;;;;;;;9.67;7.17;;;;;;;10.96;100.00;101706.22;6092935;23;20229;-67
2023/05/06 02:50:50;;;;;;;7.33;6.50;;;;;;;10.80;100.00;101667.75;6091382;23;20237;-67
2023/05/06 02:53:16;;;;;;;8.00;6.60;;;;;;;11.06;100.00;101696.91;6092842;23;20157;-67
2023/05/06 02:55:41;;;;;;;8.00;6.77;;;;;;;11.16;100.00;101690.44;6092741;23;20386;-67
2023/05/06 02:58:07;;;;;;;8.13;7.33;;;;;;;10.90;100.00;101670.19;6092404;23;20166;-67
2023/05/06 03:00:33;;;;;;;9.27;7.90;;;;;;;10.93;100.00;101672.50;6092906;23;20174;-67
2023/05/06 03:02:58;;;;;;;8.97;6.77;;;;;;;10.70;100.00;101683.25;6092663;23;20198;-67
2023/05/06 03:05:23;;;;;;;9.00;7.50;;;;;;;10.70;100.00;101656.41;6092061;23;20171;-67
2023/05/06 03:07:49;;;;;;;8.10;7.20;;;;;;;10.98;100.00;101682.72;6092930;23;20154;-67
2023/05/06 03:10:15;;;;;;;9.27;7.40;;;;;;;10.85;100.00;101683.34;6092743;23;20157;-67
2023/05/06 03:12:40;;;;;;;7.30;6.57;;;;;;;10.78;100.00;101668.94;6094862;23;20238;-67
2023/05/06 03:15:06;;;;;;;8.53;6.70;;;;;;;10.78;100.00;101672.47;6094563;23;20740;-67
2023/05/06 03:17:31;;;;;;;7.20;6.50;;;;;;;10.80;100.00;101666.94;6094294;23;20159;-67
2023/05/06 03:19:57;;;;;;;7.77;6.97;;;;;;;10.69;100.00;101657.44;6094967;23;20811;-67
2023/05/06 03:22:22;;;;;;;7.10;6.37;;;;;;;10.08;100.00;101600.19;6094952;23;20233;-67
2023/05/06 03:24:48;;;;;;;7.13;6.10;;;;;;;10.30;100.00;101676.31;6095073;23;20240;-67
2023/05/06 03:27:13;;;;;;;6.00;5.40;;;;;;;10.22;100.00;101652.22;6094179;23;20178;-67
2023/05/06 03:29:39;;;;;;;5.50;5.00;;;;;;;10.45;100.00;101693.31;6094574;23;20159;-67
2023/05/06 03:32:04;;;;;;;5.40;5.00;;;;;;;10.59;100.00;101697.09;6094592;23;20233;-67
2023/05/06 03:34:30;;;;;;;5.53;5.03;;;;;;;10.57;100.00;101691.91;6094462;23;20241;-67
2023/05/06 03:36:56;;;;;;;5.87;5.27;;;;;;;10.29;100.00;101651.34;6093980;23;20631;-67
2023/05/06 03:39:22;;;;;;;4.67;4.27;;;;;;;10.60;100.00;101677.31;6094397;23;20237;-67
2023/05/06 03:41:47;;;;;;;5.00;4.60;;;;;;;10.28;100.00;101624.72;6094348;23;20453;-67
2023/05/06 03:44:13;;;;;;;4.07;3.67;;;;;;;10.27;100.00;101621.22;6094513;23;20615;-67
2023/05/06 03:46:40;;;;;;;4.30;4.00;;;;;;;10.36;100.00;101630.84;6092621;23;20178;-67
2023/05/06 03:49:06;;;;;;;3.70;3.40;;;;;;;10.22;100.00;101638.81;6093353;23;20509;-67
2023/05/06 03:51:32;;;;;;;4.13;3.73;;;;;;;10.57;100.00;101667.75;6094628;23;20371;-67
2023/05/06 03:53:58;;;;;;;6.40;5.80;;;;;;;10.44;100.00;101645.22;6094324;23;20378;-67
2023/05/06 03:56:24;;;;;;;6.07;5.47;;;;;;;10.62;100.00;101662.69;6094273;23;20405;-67
2023/05/06 03:58:49;;;;;;;5.67;5.00;;;;;;;10.43;100.00;101655.13;6094793;23;20382;-67
2023/05/06 04:01:16;;;;;;;5.03;4.53;;;;;;;10.39;100.00;101648.44;6092706;23;20273;-67
2023/05/06 04:03:42;;;;;;;4.53;4.13;;;;;;;10.46;100.00;101661.97;6094749;23;20229;-67
2023/05/06 04:06:08;;;;;;;5.07;4.67;;;;;;;10.55;100.00;101671.63;6091219;23;20445;-67
2023/05/06 04:08:33;;;;;;;7.10;6.37;;;;;;;10.46;100.00;101662.81;6094510;23;20410;-67
2023/05/06 04:11:06;;;;;;;8.53;7.10;;;;;;;10.09;100.00;101650.91;6091740;23;20901;-67
2023/05/06 04:13:32;;;;;;;8.23;7.37;;;;;;;10.33;100.00;101678.66;6095316;23;20150;-67
2023/05/06 04:15:58;;;;;;;8.57;7.20;;;;;;;10.36;100.00;101680.97;6093351;23;20413;-67
2023/05/06 04:18:23;;;;;;;8.73;7.80;;;;;;;10.34;100.00;101672.28;6094406;23;20842;-67
2023/05/06 04:20:49;;;;;;;8.77;7.50;;;;;;;10.50;100.00;101655.22;6094572;23;20174;-67
2023/05/06 04:23:15;;;;;;;9.50;8.50;;;;;;;10.34;100.00;101673.09;6094095;23;20150;-67
2023/05/06 04:25:41;;;;;;;9.53;8.53;;;;;;;10.46;100.00;101691.47;6094019;23;20565;-67
2023/05/06 04:28:11;;;;;;;10.70;9.60;;;;;;;10.31;100.00;101678.81;6092976;23;20386;-67
2023/05/06 04:30:36;;;;;;;10.70;9.17;;;;;;;10.39;100.00;101696.72;6092430;23;20387;-67
2023/05/06 04:33:02;;;;;;;11.77;8.47;;;;;;;10.48;100.00;101684.94;6092858;23;21252;-67
2023/05/06 04:35:28;;;;;;;9.77;8.70;;;;;;;10.62;100.00;101704.78;6093798;23;20237;-67
2023/05/06 04:37:55;;;;;;;9.40;8.40;;;;;;;10.38;100.00;101705.75;6094337;23;20482;-67
2023/05/06 04:40:21;;;;;;;8.80;8.00;;;;;;;10.55;100.00;101725.28;6094438;23;20679;-67
2023/05/06 04:42:47;;;;;;;8.70;7.80;;;;;;;10.30;100.00;101706.66;6094083;23;20378;-67
2023/05/06 04:45:12;;;;;;;8.60;7.63;;;;;;;10.50;100.00;101741.91;6092337;23;20900;-67
2023/05/06 04:47:38;;;;;;;8.70;7.30;;;;;;;10.52;100.00;101715.72;6094386;23;20159;-67
2023/05/06 04:50:03;;;;;;;10.70;7.97;;;;;;;10.52;100.00;101707.69;6094440;23;20158;-67
2023/05/06 04:52:29;;;;;;;9.00;8.10;;;;;;;10.75;100.00;101728.34;6094115;23;20161;-67
2023/05/06 04:54:54;;;;;;;10.67;8.23;;;;;;;10.58;100.00;101728.44;6092385;23;20841;-67
2023/05/06 04:57:20;;;;;;;8.60;7.17;;;;;;;10.24;100.00;101722.56;6094361;23;20474;-67
2023/05/06 04:59:45;;;;;;;9.43;7.83;;;;;;;10.35;100.00;101730.25;6094149;23;20230;-67
2023/05/06 05:02:11;;;;;;;9.40;8.50;;;;;;;10.36;100.00;101762.28;6093998;23;20523;-67
2023/05/06 05:04:36;;;;;;;8.57;7.70;;;;;;;10.62;100.00;101763.81;6093589;23;20150;-67
2023/05/06 05:07:02;;;;;;;8.23;7.30;;;;;;;10.71;100.00;101757.38;6093813;23;20277;-67
2023/05/06 05:09:27;;;;;;;8.47;7.67;;;;;;;10.63;100.00;101757.44;6092317;23;20634;-67
2023/05/06 05:11:52;;;;;;;8.47;7.30;;;;;;;10.57;100.00;101760.81;6094026;23;20189;-67
2023/05/06 05:14:18;;;;;;;9.37;8.37;;;;;;;10.65;100.00;101762.63;6093820;23;20186;-66
2023/05/06 05:16:43;;;;;;;7.90;7.10;;;;;;;10.63;100.00;101770.84;6091239;23;20261;-67
2023/05/06 05:19:09;;;;;;;8.27;7.47;;;;;;;10.59;100.00;101748.91;6093918;23;20162;-67
2023/05/06 05:21:34;;;;;;;6.90;6.20;;;;;;;10.69;100.00;101763.94;6093501;23;20179;-67
2023/05/06 05:24:00;;;;;;;8.53;7.47;;;;;;;10.74;100.00;101778.50;6093786;23;20209;-67
2023/05/06 05:26:25;;;;;;;8.13;7.33;;;;;;;10.67;100.00;101787.41;6091056;23;20263;-67
2023/05/06 05:28:50;;;;;;;7.87;7.17;;;;;;;10.55;100.00;101793.16;6093339;23;20154;-67
2023/05/06 05:31:16;;;;;;;9.17;7.27;;;;;;;10.71;100.00;101786.91;6093874;23;20202;-67
2023/05/06 05:33:41;;;;;;;8.70;7.90;;;;;;;10.48;100.00;101721.66;6093161;23;20158;-67
2023/05/06 05:36:07;;;;;;;8.27;7.47;;;;;;;10.91;100.00;101797.19;6093466;23;20178;-67
2023/05/06 05:38:32;;;;;;;9.43;8.53;;;;;;;10.84;100.00;101805.09;6093371;23;20614;-67
2023/05/06 05:40:58;;;;;;;10.17;8.33;;;;;;;10.50;100.00;101802.75;6093485;23;20192;-67
2023/05/06 05:43:25;;;;;;;8.57;7.57;;;;;;;10.51;100.00;101825.91;6091763;23;20170;-67
2023/05/06 05:45:51;;;;;;;8.73;7.80;;;;;;;10.55;100.00;101827.22;6092913;23;20185;-67
2023/05/06 05:48:16;;;;;;;8.57;7.87;;;;;;;10.57;100.00;101850.19;6093674;23;20378;-67
2023/05/06 05:50:42;;;;;;;8.30;7.50;;;;;;;10.55;100.00;101854.88;6093239;23;20158;-67
2023/05/06 05:53:07;;;;;;;8.63;7.83;;;;;;;10.62;100.00;101868.44;6091675;23;20154;-67
2023/05/06 05:55:33;;;;;;;8.53;7.73;;;;;;;10.53;100.00;101864.97;6092902;23;20253;-67
2023/05/06 05:57:58;;;;;;;8.40;7.70;;;;;;;10.60;100.00;101902.66;6093296;23;20220;-67
2023/05/06 06:00:23;;;;;;;6.80;6.20;;;;;;;10.71;100.00;101904.13;6093346;23;20174;-67
2023/05/06 06:02:49;;;;;;;7.60;6.90;;;;;;;10.76;100.00;101889.19;6091273;23;20158;-67
2023/05/06 06:05:14;;;;;;;8.20;7.40;;;;;;;10.59;100.00;101879.53;6091493;23;20190;-68
2023/05/06 06:07:40;;;;;;;8.73;7.93;;;;;;;10.60;100.00;101913.38;6091585;23;20237;-67
2023/05/06 06:10:06;;;;;;;8.57;7.77;;;;;;;10.70;100.00;101921.22;6093310;23;20158;-67
2023/05/06 06:12:31;;;;;;;8.23;7.43;;;;;;;10.63;100.00;101948.75;6092774;23;20159;-68
2023/05/06 06:14:57;;;;;;;9.20;8.20;;;;;;;10.65;100.00;101964.69;6093082;23;20758;-67
2023/05/06 06:17:22;;;;;;;10.50;9.50;;;;;;;10.76;100.00;101983.13;6092942;23;20553;-67
2023/05/06 06:19:49;;;;;;;11.43;10.40;;;;;;;10.56;100.00;101974.59;6093106;23;20713;-68
2023/05/06 06:22:14;;;;;;;10.37;9.40;;;;;;;10.89;100.00;102003.22;6091585;23;20623;-67
2023/05/06 06:24:40;;;;;;;11.17;10.07;;;;;;;10.76;100.00;101960.78;6093233;23;20382;-68
2023/05/06 06:27:05;;;;;;;10.60;9.60;;;;;;;11.02;100.00;101984.69;6092946;23;20193;-67
2023/05/06 06:29:31;;;;;;;11.87;10.77;;;;;;;11.08;100.00;101990.22;6092955;23;20154;-67
2023/05/06 06:31:57;;;;;;;12.63;11.40;;;;;;;11.20;100.00;102020.22;6093127;23;20157;-67
2023/05/06 06:34:23;;;;;;;11.33;10.23;;;;;;;11.27;100.00;102010.44;6093007;23;20154;-67
2023/05/06 06:36:49;;;;;;;12.40;11.17;;;;;;;11.27;100.00;102031.09;6092089;23;20399;-67
2023/05/06 06:39:15;;;;;;;12.33;11.13;;;;;;;10.93;100.00;102026.84;6093097;23;20770;-67
2023/05/06 06:41:40;;;;;;;11.73;10.63;;;;;;;11.13;100.00;102021.91;6092744;23;20182;-67
2023/05/06 06:44:06;;;;;;;11.00;10.00;;;;;;;11.13;100.00;102047.91;6091468;23;20633;-67
2023/05/06 06:46:32;;;;;;;10.23;9.33;;;;;;;11.10;100.00;102035.69;6092397;23;20175;-67
2023/05/06 06:48:57;;;;;;;10.87;9.87;;;;;;;11.24;100.00;102077.09;6093316;23;20162;-67
2023/05/06 06:51:23;;;;;;;10.13;9.30;;;;;;;11.30;100.00;102046.84;6092887;23;20151;-67
2023/05/06 06:53:50;;;;;;;10.33;9.43;;;;;;;11.52;100.00;102089.09;6090861;23;20510;-67
2023/05/06 06:56:16;;;;;;;10.70;9.70;;;;;;;11.56;100.00;102097.63;6092917;23;20175;-67
2023/05/06 06:58:41;;;;;;;9.43;8.53;;;;;;;11.60;100.00;102103.47;6089655;23;20394;-67
2023/05/06 07:01:07;;;;;;;9.10;8.30;;;;;;;11.80;100.00;102107.41;6091120;23;20253;-67
2023/05/06 07:03:32;;;;;;;9.73;8.93;;;;;;;11.80;100.00;102102.03;6091691;23;20598;-67
2023/05/06 07:05:58;;;;;;;9.57;8.70;;;;;;;11.97;100.00;102130.53;6092055;23;20174;-67
2023/05/06 07:08:23;;;;;;;10.20;9.10;;;;;;;12.02;100.00;102123.81;6093053;23;20162;-67
2023/05/06 07:10:49;;;;;;;8.90;8.10;;;;;;;11.88;100.00;102126.22;6091136;23;20217;-67
2023/05/06 07:13:14;;;;;;;9.60;8.80;;;;;;;12.01;100.00;102138.28;6092909;23;20158;-67
2023/05/06 07:15:40;;;;;;;10.20;9.20;;;;;;;11.94;100.00;102135.44;6092155;23;20174;-67
2023/05/06 07:18:05;;;;;;;10.63;9.60;;;;;;;11.92;100.00;102129.41;6092494;23;20165;-67
2023/05/06 07:20:31;;;;;;;9.60;8.70;;;;;;;12.10;100.00;102154.19;6092495;23;20178;-67
2023/05/06 07:22:57;;;;;;;10.23;9.10;;;;;;;12.03;100.00;102157.75;6092975;23;20158;-67
2023/05/06 07:25:22;;;;;;;10.10;9.20;;;;;;;12.06;100.00;102163.59;6092666;23;20174;-67
2023/05/06 07:27:48;;;;;;;10.40;9.50;;;;;;;12.01;100.00;102154.41;6092715;23;20166;-67
2023/05/06 07:30:13;;;;;;;10.20;9.30;;;;;;;12.10;100.00;102164.13;6093172;23;20154;-67
2023/05/06 07:32:40;;;;;;;10.90;9.90;;;;;;;11.89;100.00;102152.13;6092474;23;20158;-67
2023/05/06 07:35:05;;;;;;;10.47;9.43;;;;;;;11.85;100.00;102176.78;6092479;23;20155;-67
2023/05/06 07:37:31;;;;;;;9.93;9.10;;;;;;;12.04;100.00;102179.09;6093139;23;20974;-67
2023/05/06 07:39:57;;;;;;;9.30;8.40;;;;;;;12.19;100.00;102201.53;6085430;23;20449;-72
2023/05/06 07:42:22;;;;;;;10.63;9.63;;;;;;;12.02;100.00;102146.16;6089902;23;20195;-72
2023/05/06 07:44:48;;;;;;;9.33;8.43;;;;;;;12.23;100.00;102147.38;6092026;23;20158;-72
2023/05/06 07:47:29;;;;;;;8.93;8.10;;;;;;;12.46;100.00;102185.06;6092283;23;20150;-73
2023/05/06 07:49:55;;;;;;;9.50;8.63;;;;;;;12.16;100.00;102141.88;6091752;23;20170;-72
2023/05/06 07:52:21;;;;;;;10.77;9.77;;;;;;;12.42;100.00;102182.75;6091937;23;20410;-72
2023/05/06 07:54:47;;;;;;;10.00;9.00;;;;;;;12.08;100.00;102142.75;6091597;23;20878;-72
2023/05/06 07:57:13;;;;;;;9.90;9.00;;;;;;;12.34;100.00;102193.53;6092813;23;20375;-73
2023/05/06 07:59:38;;;;;;;10.37;9.40;;;;;;;12.33;100.00;102194.56;6094030;23;20265;-73
2023/05/06 08:02:03;;;;;;;9.87;8.97;;;;;;;12.00;100.00;102129.34;6093409;23;20418;-72
2023/05/06 08:04:29;;;;;;;10.87;9.87;;;;;;;12.56;100.00;102199.16;6093959;23;20492;-73
2023/05/06 08:06:55;;;;;;;11.00;9.93;;;;;;;12.43;100.00;102170.13;6093196;23;20155;-73
2023/05/06 08:09:21;;;;;;;11.60;10.40;;;;;;;12.61;100.00;102210.19;6093396;23;20155;-72
2023/05/06 08:11:47;;;;;;;10.87;9.87;;;;;;;12.64;100.00;102209.84;6094195;23;20666;-72
2023/05/06 08:14:12;;;;;;;11.70;10.60;;;;;;;12.60;100.00;102211.22;6093958;23;20161;-72
2023/05/06 08:16:37;;;;;;;13.03;10.87;;;;;;;12.86;100.00;102230.53;6093429;23;20378;-72
2023/05/06 08:19:03;;;;;;;11.37;10.27;;;;;;;12.87;100.00;102217.91;6092272;23;20169;-72
2023/05/06 08:21:28;;;;;;;13.30;11.90;;;;;;;12.95;100.00;102243.94;6092160;23;20178;-72
2023/05/06 08:23:54;;;;;;;16.83;13.33;;;;;;;12.86;100.00;102254.78;6092116;23;20225;-73
2023/05/06 08:26:20;;;;;;;12.83;11.63;;;;;;;13.02;100.00;102263.78;6093085;23;20255;-73
2023/05/06 08:28:45;;;;;;;11.27;10.20;;;;;;;13.00;100.00;102257.72;6093899;23;20151;-72
2023/05/06 08:31:10;;;;;;;11.90;10.80;;;;;;;13.22;100.00;102270.34;6092102;23;20580;-73
2023/05/06 08:33:36;;;;;;;12.50;11.30;;;;;;;12.93;100.00;102222.59;6093766;23;20164;-73
2023/05/06 08:36:01;;;;;;;11.47;10.33;;;;;;;13.00;100.00;102220.00;6092978;23;20158;-73
2023/05/06 08:38:27;;;;;;;12.20;11.00;;;;;;;13.17;100.00;102240.41;6092933;23;20489;-73
2023/05/06 08:40:53;;;;;;;11.00;10.00;;;;;;;13.41;100.00;102262.78;6091180;23;20187;-73
2023/05/06 08:43:20;;;;;;;11.70;10.57;;;;;;;13.14;100.00;102211.13;6093522;23;20162;-73
2023/05/06 08:45:46;;;;;;;10.83;9.83;;;;;;;13.50;100.00;102264.38;6093318;23;20381;-73
2023/05/06 08:48:12;;;;;;;11.43;10.40;;;;;;;13.39;100.00;102262.13;6093857;23;20379;-74
2023/05/06 08:50:42;;;;;;;11.13;9.93;;;;;;;13.33;100.00;102259.13;6093449;23;20861;-73
2023/05/06 08:53:16;;;;;;;9.47;8.57;;;;;;;13.47;100.00;102262.88;6093227;23;20159;-73
2023/05/06 08:55:42;;;;;;;10.80;9.47;;;;;;;13.24;100.00;102183.91;6092829;23;20390;-73
2023/05/06 08:58:10;;;;;;;10.03;9.00;;;;;;;13.52;100.00;102225.44;6093418;23;20386;-74
2023/05/06 09:00:36;;;;;;;10.83;9.73;;;;;;;13.68;100.00;102248.72;6092048;23;20457;-74
2023/05/06 09:03:02;;;;;;;10.60;9.50;;;;;;;13.72;100.00;102243.78;6092986;23;20914;-74
2023/05/06 09:05:27;;;;;;;11.63;10.43;;;;;;;13.79;100.00;102244.69;6093334;23;20154;-74
2023/05/06 09:07:53;;;;;;;9.00;8.10;;;;;;;13.53;100.00;102183.97;6091429;23;20170;-73
2023/05/06 09:10:18;;;;;;;11.10;9.97;;;;;;;13.37;100.00;102134.81;6092828;23;20209;-74
2023/05/06 09:12:44;;;;;;;10.30;9.30;;;;;;;14.02;100.00;102242.72;6093827;23;20159;-74
2023/05/06 09:15:10;;;;;;;10.43;9.37;;;;;;;13.76;100.00;102189.28;6092683;23;20196;-74
2023/05/06 09:17:36;;;;;;;9.70;8.80;;;;;;;13.91;100.00;102196.50;6092663;23;20155;-74
2023/05/06 09:20:02;;;;;;;11.00;9.90;;;;;;;13.86;100.00;102189.00;6092477;23;20861;-74
2023/05/06 09:22:29;;;;;;;10.63;9.57;;;;;;;13.65;100.00;102146.59;6092784;23;20185;-74
2023/05/06 09:24:56;;;;;;;10.03;9.03;;;;;;;14.19;100.00;102215.56;6092685;23;20154;-74
2023/05/06 09:27:27;;;;;;;12.10;10.90;;;;;;;14.29;100.00;102212.53;6091304;23;20378;-74
2023/05/06 09:30:06;;;;;;;11.57;10.40;;;;;;;14.47;100.00;102213.81;6089492;23;20394;-74
2023/05/06 09:32:33;;;;;;;10.40;9.43;;;;;;;14.66;100.00;102206.13;6092815;23;20461;-74
2023/05/06 09:34:58;;;;;;;10.00;9.00;;;;;;;14.31;100.00;102154.66;6092889;23;20379;-74
2023/05/06 09:37:27;;;;;;;11.80;9.97;;;;;;;14.50;100.00;102190.16;6092491;23;20398;-74
2023/05/06 09:39:55;;;;;;;11.03;9.77;;;;;;;14.38;100.00;102176.34;6092663;23;20572;-74
2023/05/06 09:42:22;;;;;;;9.97;8.80;;;;;;;14.68;100.00;102194.09;6092987;23;20425;-74
2023/05/06 09:44:48;;;;;;;10.70;9.70;;;;;;;14.67;100.00;102184.34;6093033;23;20458;-74
2023/05/06 09:47:14;;;;;;;9.30;8.40;;;;;;;14.52;100.00;102188.13;6092637;23;20481;-74
2023/05/06 09:49:40;;;;;;;9.50;8.60;;;;;;;14.52;100.00;102174.63;6092837;23;20516;-74
2023/05/06 09:52:06;;;;;;;10.27;9.27;;;;;;;14.43;100.00;102166.59;6093014;23;20200;-74
2023/05/06 09:54:32;;;;;;;10.27;9.20;;;;;;;14.36;100.00;102159.50;6092430;23;20418;-74
2023/05/06 09:56:58;;;;;;;9.80;8.90;;;;;;;14.44;100.00;102157.50;6092683;23;20383;-74
2023/05/06 09:59:27;;;;;;;12.20;11.00;;;;;;;14.16;100.00;102114.22;6092530;23;20681;-73
2023/05/06 10:01:53;;;;;;;9.93;8.97;;;;;;;14.48;100.00;102155.25;6092830;23;20893;-74
2023/05/06 10:04:22;;;;;;;11.00;9.90;;;;;;;14.52;100.00;102143.06;6091154;23;20398;-74
2023/05/06 10:06:49;;;;;;;9.80;8.90;;;;;;;14.04;100.00;102072.59;6092117;23;20853;-74
2023/05/06 10:09:16;;;;;;;8.93;8.03;;;;;;;14.66;100.00;102136.75;6092487;23;20379;-74
2023/05/06 10:11:43;;;;;;;8.70;7.80;;;;;;;14.72;100.00;102126.19;6092622;23;20378;-74
2023/05/06 10:14:09;;;;;;;10.43;9.43;;;;;;;14.73;100.00;102117.09;6092681;23;20406;-75
2023/05/06 10:16:36;;;;;;;11.00;9.13;;;;;;;14.76;100.00;102114.81;6092313;23;20842;-75
2023/05/06 10:19:03;;;;;;;11.13;8.90;;;;;;;14.74;100.00;102118.75;6092559;23;20787;-74
2023/05/06 10:21:33;;;;;;;9.27;8.37;;;;;;;14.73;100.00;102111.69;6091199;23;20505;-74
2023/05/06 10:24:07;;;;;;;9.17;8.27;;;;;;;14.69;100.00;102095.88;6092519;23;20469;-74
2023/05/06 10:26:36;;;;;;;9.33;8.43;;;;;;;14.88;100.00;102104.31;6092116;23;20389;-74
2023/05/06 10:29:03;;;;;;;9.80;8.90;;;;;;;14.71;100.00;102092.97;6092421;23;20379;-74
2023/05/06 10:31:30;;;;;;;11.20;10.10;;;;;;;14.46;100.00;102049.31;6092604;23;21023;-74
2023/05/06 10:33:59;;;;;;;10.50;9.50;;;;;;;14.72;100.00;102075.72;6090583;23;20389;-74
2023/05/06 10:36:30;;;;;;;11.70;10.50;;;;;;;14.89;100.00;102069.00;6092295;23;20379;-74
2023/05/06 10:39:02;;;;;;;9.33;8.33;;;;;;;15.16;100.00;102063.78;6091613;23;20471;-74
2023/05/06 10:41:29;;;;;;;9.77;8.80;;;;;;;15.33;100.00;102065.13;6092278;23;20430;-74
2023/05/06 10:43:55;;;;;;;11.83;10.40;;;;;;;15.23;100.00;102042.19;6092305;23;20487;-74
2023/05/06 10:46:26;;;;;;;11.33;10.13;;;;;;;15.34;100.00;102037.03;6092155;23;20390;-74
2023/05/06 10:51:33;;;;;;;11.13;10.13;;;;;;;15.65;100.00;101997.84;6079038;23;20446;-69
2023/05/06 10:54:35;;;;;;;12.40;11.10;;;;;;;13.49;100.00;101626.63;6082167;23;20481;-69
2023/05/06 10:57:07;;;;;;;10.90;9.80;;;;;;;15.60;100.00;101948.94;6026301;23;20473;-67
2023/05/06 10:59:33;;;;;;;10.33;9.33;;;;;;;15.56;100.00;101907.97;6089180;23;20437;-67
2023/05/06 11:02:01;;;;;;;10.00;9.00;;;;;;;15.84;100.00;101904.25;6087865;23;20418;-69
2023/05/06 11:04:29;;;;;;;11.30;9.77;;;;;;;15.76;100.00;101861.16;6087246;23;20257;-69
2023/05/06 11:07:06;;;;;;;10.90;9.80;;;;;;;15.87;100.00;101846.19;6084678;23;20416;-68
2023/05/06 11:09:32;;;;;;;13.30;9.77;;;;;;;15.78;100.00;101826.63;6087794;23;20395;-69
2023/05/06 11:12:05;;;;;;;10.13;9.13;;;;;;;15.79;100.00;101812.06;6088615;23;20410;-69
2023/05/06 11:14:36;;;;;;;9.37;8.43;;;;;;;15.65;100.00;101789.59;6087188;23;20173;-67